Time;durP1;ratioP1;P1;durP2;ratioP2;P2;SDS_P1;SDS_P2;PMS_P1;PMS_P2;Temp;Humidity;BMP_temperature;BMP_pressure;BME280_temperature;BME280_humidity;BME280_pressure;Samples;Min_cycle;Max_cycle;Signal;HPM_P1;HPM_P2
2022/11/25 00:01:48;;;;;;;9.02;5.88;;;;;;;;;;5040420;28;20030;-84
2022/11/25 00:04:14;;;;;;;10.95;6.50;;;;;;;;;;5039670;28;20491;-84
2022/11/25 00:06:40;;;;;;;9.57;6.07;;;;;;;;;;5040494;28;20033;-82
2022/11/25 00:09:10;;;;;;;11.23;6.20;;;;;;;;;;5038000;28;20021;-84
2022/11/25 00:11:38;;;;;;;10.15;6.25;;;;;;;;;;5051047;28;20053;-84
2022/11/25 00:14:04;;;;;;;9.75;6.07;;;;;;;;;;5044926;28;20025;-84
2022/11/25 00:16:30;;;;;;;10.60;5.88;;;;;;;;;;5054166;28;20697;-84
2022/11/25 00:18:57;;;;;;;10.30;5.70;;;;;;;;;;5052959;28;20035;-84
2022/11/25 00:21:24;;;;;;;9.20;6.00;;;;;;;;;;5043802;28;20108;-85
2022/11/25 00:23:55;;;;;;;10.00;6.07;;;;;;;;;;5039215;28;20029;-84
2022/11/25 00:26:21;;;;;;;9.63;6.13;;;;;;;;;;5037835;28;20258;-84
2022/11/25 00:28:48;;;;;;;11.07;5.97;;;;;;;;;;5057740;28;20025;-84
2022/11/25 00:31:14;;;;;;;10.70;6.40;;;;;;;;;;5051973;28;20031;-84
2022/11/25 00:33:41;;;;;;;10.40;5.53;;;;;;;;;;5039522;28;20033;-84
2022/11/25 00:36:12;;;;;;;8.75;5.50;;;;;;;;;;5035730;28;20013;-84
2022/11/25 00:38:38;;;;;;;11.20;6.10;;;;;;;;;;5049224;28;20043;-84
2022/11/25 00:46:34;;;;;;;10.45;6.95;;;;;;;;;;5036580;28;20084;-85
2022/11/25 00:49:00;;;;;;;9.43;5.72;;;;;;;;;;5046474;28;20515;-84
2022/11/25 00:51:27;;;;;;;9.00;5.65;;;;;;;;;;5055199;28;20445;-84
2022/11/25 00:53:53;;;;;;;10.13;5.43;;;;;;;;;;5053359;28;20032;-84
2022/11/25 00:56:21;;;;;;;9.30;5.82;;;;;;;;;;5054624;28;20065;-84
2022/11/25 00:58:47;;;;;;;9.77;5.35;;;;;;;;;;5039855;28;20025;-84
2022/11/25 01:01:14;;;;;;;9.75;5.65;;;;;;;;;;5052545;28;20028;-84
2022/11/25 01:03:40;;;;;;;11.13;6.72;;;;;;;;;;5053706;28;20017;-85
2022/11/25 01:06:10;;;;;;;9.68;5.85;;;;;;;;;;5053780;28;20029;-85
2022/11/25 01:08:37;;;;;;;9.65;5.40;;;;;;;;;;5059865;28;20060;-84
2022/11/25 01:11:04;;;;;;;9.80;5.63;;;;;;;;;;5054849;28;20025;-84
2022/11/25 01:13:31;;;;;;;8.88;5.53;;;;;;;;;;5039775;28;20029;-84
2022/11/25 01:15:57;;;;;;;11.13;6.07;;;;;;;;;;5032691;28;20029;-84
2022/11/25 01:18:23;;;;;;;9.38;6.22;;;;;;;;;;5038871;28;20446;-84
2022/11/25 01:20:49;;;;;;;9.57;5.88;;;;;;;;;;5053723;28;20032;-85
2022/11/25 01:23:15;;;;;;;9.35;6.00;;;;;;;;;;5045774;28;20038;-84
2022/11/25 01:25:41;;;;;;;8.02;5.15;;;;;;;;;;5051091;28;20057;-84
2022/11/25 01:28:07;;;;;;;9.45;5.68;;;;;;;;;;5042888;28;20032;-85
2022/11/25 01:30:33;;;;;;;10.65;5.65;;;;;;;;;;5035102;28;20017;-84
2022/11/25 01:32:59;;;;;;;9.88;6.13;;;;;;;;;;5033453;28;20022;-84
2022/11/25 01:35:25;;;;;;;8.88;5.32;;;;;;;;;;5034960;28;20052;-85
2022/11/25 01:37:51;;;;;;;9.38;5.68;;;;;;;;;;5039429;28;20026;-85
2022/11/25 01:40:18;;;;;;;10.20;6.25;;;;;;;;;;5033964;28;20086;-84
2022/11/25 01:42:47;;;;;;;9.40;5.68;;;;;;;;;;5039948;28;20025;-85
2022/11/25 01:45:33;;;;;;;11.15;5.70;;;;;;;;;;5052320;28;20087;-85
2022/11/25 01:48:02;;;;;;;9.80;5.22;;;;;;;;;;5035387;28;20510;-84
2022/11/25 01:50:28;;;;;;;8.43;5.60;;;;;;;;;;5034670;28;20434;-84
2022/11/25 01:52:56;;;;;;;12.05;6.20;;;;;;;;;;5053488;28;20021;-85
2022/11/25 01:55:25;;;;;;;11.60;5.68;;;;;;;;;;5045690;28;20025;-86
2022/11/25 01:57:54;;;;;;;9.85;6.00;;;;;;;;;;5037271;28;20030;-85
2022/11/25 02:00:20;;;;;;;10.65;6.03;;;;;;;;;;5044871;28;20484;-85
2022/11/25 02:02:47;;;;;;;10.25;6.18;;;;;;;;;;5033434;28;20025;-85
2022/11/25 02:05:14;;;;;;;10.88;6.65;;;;;;;;;;5034615;28;20113;-85
2022/11/25 02:07:42;;;;;;;9.48;5.50;;;;;;;;;;5034224;28;20021;-85
2022/11/25 02:10:10;;;;;;;10.75;5.65;;;;;;;;;;5043178;28;20483;-84
2022/11/25 02:12:37;;;;;;;10.07;6.00;;;;;;;;;;5054324;28;20025;-84
2022/11/25 02:15:03;;;;;;;9.65;5.70;;;;;;;;;;5051949;28;20126;-85
2022/11/25 02:17:29;;;;;;;10.02;5.50;;;;;;;;;;5052466;28;20029;-85
2022/11/25 02:20:05;;;;;;;10.23;5.65;;;;;;;;;;5036134;28;20030;-85
2022/11/25 02:22:39;;;;;;;14.45;6.05;;;;;;;;;;5034690;28;20033;-85
2022/11/25 02:25:16;;;;;;;9.82;6.47;;;;;;;;;;5032787;28;20034;-85
2022/11/25 02:27:44;;;;;;;11.73;5.78;;;;;;;;;;5053946;28;20491;-85
2022/11/25 02:30:10;;;;;;;11.50;6.45;;;;;;;;;;5048302;28;20025;-85
2022/11/25 02:32:36;;;;;;;12.88;7.05;;;;;;;;;;5051036;28;20116;-85
2022/11/25 02:35:02;;;;;;;11.63;6.07;;;;;;;;;;5033101;28;20056;-85
2022/11/25 02:37:28;;;;;;;11.77;7.00;;;;;;;;;;5031320;28;20098;-85
2022/11/25 02:39:54;;;;;;;10.30;6.45;;;;;;;;;;5031083;28;20479;-85
2022/11/25 02:42:21;;;;;;;10.82;6.43;;;;;;;;;;5031843;28;20061;-85
2022/11/25 02:44:48;;;;;;;10.50;6.93;;;;;;;;;;5033014;28;20515;-85
2022/11/25 02:47:14;;;;;;;10.68;6.18;;;;;;;;;;5046593;28;20431;-85
2022/11/25 02:49:40;;;;;;;11.57;7.05;;;;;;;;;;5032720;28;20369;-85
2022/11/25 02:52:06;;;;;;;10.75;5.68;;;;;;;;;;5033634;28;20022;-85
2022/11/25 02:54:32;;;;;;;10.40;5.82;;;;;;;;;;5047986;28;20025;-85
2022/11/25 02:56:58;;;;;;;11.65;6.40;;;;;;;;;;5037082;28;20037;-85
2022/11/25 02:59:24;;;;;;;10.48;5.68;;;;;;;;;;5036372;28;20051;-85
2022/11/25 03:01:50;;;;;;;10.00;5.82;;;;;;;;;;5038496;28;20034;-85
2022/11/25 03:04:16;;;;;;;10.88;6.00;;;;;;;;;;5039522;28;20419;-84
2022/11/25 03:06:42;;;;;;;9.82;5.70;;;;;;;;;;5049873;28;20386;-85
2022/11/25 03:09:08;;;;;;;10.60;6.43;;;;;;;;;;5043972;28;20353;-85
2022/11/25 03:14:19;;;;;;;8.95;5.78;;;;;;;;;;5057568;28;20111;-85
2022/11/25 03:16:45;;;;;;;10.73;5.53;;;;;;;;;;5037904;28;20483;-85
2022/11/25 03:19:11;;;;;;;11.23;5.45;;;;;;;;;;5038030;28;20029;-85
2022/11/25 03:21:37;;;;;;;12.77;5.65;;;;;;;;;;5041704;28;20025;-87
2022/11/25 03:24:03;;;;;;;10.10;5.20;;;;;;;;;;5042114;28;20025;-87
2022/11/25 03:26:30;;;;;;;9.90;6.57;;;;;;;;;;5032758;28;20032;-87
2022/11/25 03:28:56;;;;;;;10.35;5.13;;;;;;;;;;5032570;28;20017;-87
2022/11/25 03:31:22;;;;;;;9.52;5.15;;;;;;;;;;5032789;28;20018;-87
2022/11/25 03:33:48;;;;;;;9.88;5.25;;;;;;;;;;5032864;28;20142;-87
2022/11/25 03:36:14;;;;;;;8.35;5.07;;;;;;;;;;5032576;28;20032;-86
2022/11/25 03:38:40;;;;;;;10.13;5.78;;;;;;;;;;5032308;28;20036;-87
2022/11/25 03:41:06;;;;;;;8.52;4.97;;;;;;;;;;5033796;28;20045;-87
2022/11/25 03:43:34;;;;;;;8.70;5.07;;;;;;;;;;5039864;28;20048;-87
2022/11/25 03:46:00;;;;;;;10.05;5.72;;;;;;;;;;5052674;28;20513;-87
2022/11/25 03:48:26;;;;;;;8.57;4.90;;;;;;;;;;5043272;28;20041;-88
2022/11/25 03:50:52;;;;;;;9.98;5.45;;;;;;;;;;5052171;28;20013;-87
2022/11/25 03:53:18;;;;;;;10.48;5.78;;;;;;;;;;5033679;28;20057;-87
2022/11/25 03:55:47;;;;;;;10.23;6.07;;;;;;;;;;5033198;28;20476;-87
2022/11/25 03:58:13;;;;;;;9.40;5.35;;;;;;;;;;5033293;28;20049;-87
2022/11/25 04:00:39;;;;;;;10.63;5.88;;;;;;;;;;5032471;28;20647;-87
2022/11/25 04:03:05;;;;;;;10.45;5.47;;;;;;;;;;5032505;28;20029;-86
2022/11/25 04:05:31;;;;;;;12.88;5.35;;;;;;;;;;5032982;28;20120;-86
2022/11/25 04:07:57;;;;;;;11.32;6.20;;;;;;;;;;5045705;28;20441;-86
2022/11/25 04:10:23;;;;;;;10.65;5.60;;;;;;;;;;5033265;28;20025;-86
2022/11/25 04:12:51;;;;;;;8.82;5.65;;;;;;;;;;5045035;28;20022;-87
2022/11/25 04:15:17;;;;;;;11.63;5.03;;;;;;;;;;5047993;28;20021;-87
2022/11/25 04:17:44;;;;;;;9.57;5.55;;;;;;;;;;5047776;28;20539;-87
2022/11/25 04:20:10;;;;;;;10.23;6.05;;;;;;;;;;5033354;28;20395;-86
2022/11/25 04:22:36;;;;;;;11.10;6.55;;;;;;;;;;5032542;28;20052;-86
2022/11/25 04:25:03;;;;;;;11.93;7.32;;;;;;;;;;5031430;28;20025;-86
2022/11/25 04:27:29;;;;;;;10.68;6.63;;;;;;;;;;5034014;28;20021;-87
2022/11/25 04:29:55;;;;;;;9.50;5.30;;;;;;;;;;5031623;28;20151;-87
2022/11/25 04:32:21;;;;;;;10.68;5.97;;;;;;;;;;5041033;28;20512;-87
2022/11/25 04:34:47;;;;;;;10.98;5.43;;;;;;;;;;5054203;28;20483;-86
2022/11/25 04:37:13;;;;;;;11.48;6.10;;;;;;;;;;5054029;28;20025;-87
2022/11/25 04:39:39;;;;;;;10.38;5.57;;;;;;;;;;5053917;28;20144;-86
2022/11/25 04:44:51;;;;;;;9.52;5.47;;;;;;;;;;5040087;28;20048;-86
2022/11/25 04:47:17;;;;;;;10.95;7.28;;;;;;;;;;5032421;28;20021;-86
2022/11/25 04:49:43;;;;;;;10.75;5.53;;;;;;;;;;5031375;28;20479;-86
2022/11/25 04:52:09;;;;;;;11.55;6.13;;;;;;;;;;5031344;28;20032;-86
2022/11/25 04:54:35;;;;;;;14.38;8.75;;;;;;;;;;5031360;28;20021;-86
2022/11/25 04:57:01;;;;;;;38.33;17.90;;;;;;;;;;5042807;28;20040;-87
2022/11/25 04:59:39;;;;;;;23.35;12.18;;;;;;;;;;5040046;28;20056;-86
2022/11/25 05:02:06;;;;;;;26.63;13.98;;;;;;;;;;5044305;28;20148;-86
2022/11/25 05:04:32;;;;;;;31.88;17.88;;;;;;;;;;5035220;28;20029;-87
2022/11/25 05:06:58;;;;;;;31.55;17.50;;;;;;;;;;5051514;28;20029;-87
2022/11/25 05:09:24;;;;;;;24.63;14.10;;;;;;;;;;5046522;28;20026;-87
2022/11/25 05:11:50;;;;;;;22.70;12.55;;;;;;;;;;5039210;28;20040;-87
2022/11/25 05:14:16;;;;;;;23.45;13.50;;;;;;;;;;5044000;28;20409;-86
2022/11/25 05:16:42;;;;;;;36.72;18.00;;;;;;;;;;5037359;28;20060;-86
2022/11/25 05:19:08;;;;;;;27.23;15.48;;;;;;;;;;5038177;28;20432;-87
2022/11/25 05:21:34;;;;;;;29.48;17.73;;;;;;;;;;5040867;28;20032;-87
2022/11/25 05:24:00;;;;;;;28.65;16.80;;;;;;;;;;5034959;28;20072;-87
2022/11/25 05:26:26;;;;;;;29.33;17.00;;;;;;;;;;5037822;28;20033;-87
2022/11/25 05:28:52;;;;;;;23.30;13.77;;;;;;;;;;5038100;28;20017;-87
2022/11/25 05:31:18;;;;;;;20.40;11.10;;;;;;;;;;5035141;28;20506;-87
2022/11/25 05:33:44;;;;;;;27.13;14.63;;;;;;;;;;5035127;28;20049;-86
2022/11/25 05:36:10;;;;;;;19.85;10.77;;;;;;;;;;5040850;28;20455;-86
2022/11/25 05:38:36;;;;;;;20.13;10.98;;;;;;;;;;5043598;28;20116;-86
2022/11/25 05:41:04;;;;;;;20.63;11.82;;;;;;;;;;5034397;28;20040;-87
2022/11/25 05:43:30;;;;;;;16.67;10.68;;;;;;;;;;5036556;28;20674;-86
2022/11/25 05:45:56;;;;;;;18.70;10.27;;;;;;;;;;5039103;28;20087;-87
2022/11/25 05:48:22;;;;;;;16.23;9.07;;;;;;;;;;5035949;28;20025;-87
2022/11/25 05:50:48;;;;;;;17.90;9.43;;;;;;;;;;5038385;28;20029;-86
2022/11/25 05:53:16;;;;;;;14.80;8.55;;;;;;;;;;5041207;28;20097;-86
2022/11/25 05:55:42;;;;;;;17.45;9.25;;;;;;;;;;5035313;28;20020;-86
2022/11/25 05:58:08;;;;;;;15.68;9.98;;;;;;;;;;5038647;28;20025;-87
2022/11/25 06:00:34;;;;;;;14.93;9.43;;;;;;;;;;5048982;28;20502;-86
2022/11/25 06:03:00;;;;;;;17.58;9.52;;;;;;;;;;5032187;28;20037;-86
2022/11/25 06:05:26;;;;;;;15.45;8.60;;;;;;;;;;5031860;28;20546;-86
2022/11/25 06:07:53;;;;;;;15.88;8.77;;;;;;;;;;5030935;28;20052;-86
2022/11/25 06:10:19;;;;;;;14.98;8.20;;;;;;;;;;5029852;28;20044;-86
2022/11/25 06:12:45;;;;;;;16.50;8.45;;;;;;;;;;5033116;28;20488;-86
2022/11/25 06:15:12;;;;;;;15.52;7.97;;;;;;;;;;5031318;28;20124;-86
2022/11/25 06:17:38;;;;;;;14.00;7.90;;;;;;;;;;5044887;28;20026;-85
2022/11/25 06:20:06;;;;;;;12.43;7.75;;;;;;;;;;5043010;28;20026;-87
2022/11/25 06:22:32;;;;;;;17.50;8.35;;;;;;;;;;5033980;28;20108;-86
2022/11/25 06:24:58;;;;;;;11.68;7.00;;;;;;;;;;5032734;28;20040;-86
2022/11/25 06:27:24;;;;;;;14.68;7.85;;;;;;;;;;5032894;28;20030;-86
2022/11/25 06:29:50;;;;;;;10.90;6.82;;;;;;;;;;5042431;28;20052;-86
2022/11/25 06:32:16;;;;;;;14.38;7.43;;;;;;;;;;5044818;28;20414;-86
2022/11/25 06:34:42;;;;;;;11.45;6.70;;;;;;;;;;5035170;28;20084;-87
2022/11/25 06:37:08;;;;;;;9.98;6.80;;;;;;;;;;5043854;28;20024;-86
2022/11/25 06:39:34;;;;;;;12.25;6.88;;;;;;;;;;5034702;28;20061;-86
2022/11/25 06:42:01;;;;;;;11.43;6.63;;;;;;;;;;5039335;28;20299;-86
2022/11/25 06:44:27;;;;;;;13.93;6.15;;;;;;;;;;5052837;28;20115;-86
2022/11/25 06:46:53;;;;;;;13.00;7.35;;;;;;;;;;5044316;28;20080;-86
2022/11/25 06:49:19;;;;;;;13.27;7.25;;;;;;;;;;5039051;28;20025;-85
2022/11/25 06:51:45;;;;;;;13.05;7.30;;;;;;;;;;5038174;28;20035;-85
2022/11/25 06:54:11;;;;;;;16.88;7.07;;;;;;;;;;5038315;28;20518;-85
2022/11/25 06:56:38;;;;;;;14.05;7.28;;;;;;;;;;5037436;28;20165;-85
2022/11/25 06:59:04;;;;;;;15.18;7.97;;;;;;;;;;5043401;28;20025;-86
2022/11/25 07:01:30;;;;;;;13.60;8.27;;;;;;;;;;5034851;28;20041;-86
2022/11/25 07:04:02;;;;;;;11.50;6.72;;;;;;;;;;5038122;28;20037;-86
2022/11/25 07:06:28;;;;;;;9.32;5.57;;;;;;;;;;5037865;28;20041;-86
2022/11/25 07:08:54;;;;;;;7.90;5.10;;;;;;;;;;5033085;28;20021;-86
2022/11/25 07:11:24;;;;;;;8.48;4.97;;;;;;;;;;5036920;28;20120;-86
2022/11/25 07:13:54;;;;;;;8.07;4.80;;;;;;;;;;5040391;28;20025;-87
2022/11/25 07:16:20;;;;;;;9.80;4.93;;;;;;;;;;5046230;28;20025;-87
2022/11/25 07:18:46;;;;;;;8.98;5.20;;;;;;;;;;5036452;28;20479;-87
2022/11/25 07:21:16;;;;;;;7.85;5.18;;;;;;;;;;5042366;28;20104;-86
2022/11/25 07:23:43;;;;;;;9.02;6.60;;;;;;;;;;5041946;28;20121;-87
2022/11/25 07:26:11;;;;;;;10.38;6.38;;;;;;;;;;5039077;28;20541;-85
2022/11/25 07:28:38;;;;;;;10.45;6.70;;;;;;;;;;5041874;28;20033;-86
2022/11/25 07:31:15;;;;;;;10.90;6.80;;;;;;;;;;5040938;28;20072;-87
2022/11/25 07:33:41;;;;;;;10.20;6.90;;;;;;;;;;5043726;28;20025;-88
2022/11/25 07:36:08;;;;;;;9.85;6.63;;;;;;;;;;5042965;28;20029;-87
2022/11/25 07:38:35;;;;;;;10.45;7.03;;;;;;;;;;5038601;28;20129;-87
2022/11/25 07:41:04;;;;;;;9.55;6.78;;;;;;;;;;5040787;28;20678;-88
2022/11/25 07:43:31;;;;;;;10.60;6.80;;;;;;;;;;5041712;28;20087;-86
2022/11/25 07:46:06;;;;;;;10.52;7.22;;;;;;;;;;5039851;28;20128;-86
2022/11/25 07:48:32;;;;;;;10.77;7.28;;;;;;;;;;5039517;28;20021;-85
2022/11/25 07:50:58;;;;;;;10.32;6.07;;;;;;;;;;5046307;28;20029;-86
2022/11/25 07:53:24;;;;;;;9.68;6.72;;;;;;;;;;5039579;28;20418;-86
2022/11/25 07:55:50;;;;;;;10.60;6.85;;;;;;;;;;5053206;28;20029;-86
2022/11/25 07:58:16;;;;;;;12.13;8.27;;;;;;;;;;5051266;28;20029;-85
2022/11/25 08:00:42;;;;;;;11.10;7.80;;;;;;;;;;5036746;28;20059;-85
2022/11/25 08:03:08;;;;;;;11.38;7.90;;;;;;;;;;5034191;28;20057;-85
2022/11/25 08:05:34;;;;;;;11.50;7.80;;;;;;;;;;5037562;28;20024;-86
2022/11/25 08:08:00;;;;;;;11.35;7.95;;;;;;;;;;5037650;28;20025;-85
2022/11/25 08:10:26;;;;;;;11.98;7.97;;;;;;;;;;5040031;28;20033;-85
2022/11/25 08:12:52;;;;;;;11.25;8.05;;;;;;;;;;5038465;28;20033;-85
2022/11/25 08:15:18;;;;;;;11.57;7.85;;;;;;;;;;5040640;28;20030;-84
2022/11/25 08:17:44;;;;;;;10.38;7.60;;;;;;;;;;5039858;28;20452;-84
2022/11/25 08:20:11;;;;;;;11.50;8.55;;;;;;;;;;5047808;28;20519;-85
2022/11/25 08:22:37;;;;;;;11.13;7.00;;;;;;;;;;5044957;28;20380;-84
2022/11/25 08:25:03;;;;;;;11.95;8.00;;;;;;;;;;5044236;28;20032;-84
2022/11/25 08:27:29;;;;;;;12.30;8.05;;;;;;;;;;5041705;28;20036;-84
2022/11/25 08:29:55;;;;;;;13.75;7.68;;;;;;;;;;5039939;28;20025;-83
2022/11/25 08:32:21;;;;;;;11.65;7.07;;;;;;;;;;5043172;28;20026;-84
2022/11/25 08:34:47;;;;;;;12.13;7.45;;;;;;;;;;5043748;28;20036;-84
2022/11/25 08:37:13;;;;;;;13.43;9.20;;;;;;;;;;5041600;28;20049;-85
2022/11/25 08:39:39;;;;;;;12.85;8.35;;;;;;;;;;5051351;28;20033;-85
2022/11/25 08:42:05;;;;;;;12.85;8.65;;;;;;;;;;5049030;28;20049;-84
2022/11/25 08:44:31;;;;;;;14.55;9.30;;;;;;;;;;5049044;28;20037;-83
2022/11/25 08:46:57;;;;;;;13.20;8.65;;;;;;;;;;5047223;28;20037;-85
2022/11/25 08:49:25;;;;;;;11.93;8.10;;;;;;;;;;5038470;28;20026;-84
2022/11/25 08:51:52;;;;;;;14.07;8.75;;;;;;;;;;5057535;28;20085;-85
2022/11/25 08:54:18;;;;;;;11.00;7.82;;;;;;;;;;5045723;28;20017;-84
2022/11/25 08:56:44;;;;;;;12.80;8.00;;;;;;;;;;5055920;28;20035;-85
2022/11/25 08:59:10;;;;;;;13.00;8.05;;;;;;;;;;5036360;28;20143;-84
2022/11/25 09:01:36;;;;;;;12.65;8.32;;;;;;;;;;5039646;28;20025;-85
2022/11/25 09:04:02;;;;;;;13.05;7.60;;;;;;;;;;5042390;28;20112;-83
2022/11/25 09:06:28;;;;;;;12.43;7.80;;;;;;;;;;5041982;28;20533;-83
2022/11/25 09:08:55;;;;;;;11.20;7.28;;;;;;;;;;5045435;28;20075;-84
2022/11/25 09:11:21;;;;;;;10.60;6.93;;;;;;;;;;5058867;28;20025;-82
2022/11/25 09:13:47;;;;;;;11.40;7.25;;;;;;;;;;5048645;28;20022;-82
2022/11/25 09:16:14;;;;;;;11.18;6.20;;;;;;;;;;5068653;28;20032;-83
2022/11/25 09:18:40;;;;;;;14.48;6.50;;;;;;;;;;5059555;28;20449;-83
2022/11/25 09:21:10;;;;;;;10.93;6.20;;;;;;;;;;5061127;28;20521;-82
2022/11/25 09:23:37;;;;;;;11.07;6.78;;;;;;;;;;5051168;28;20036;-83
2022/11/25 09:26:04;;;;;;;8.77;6.38;;;;;;;;;;5055505;28;20075;-82
2022/11/25 09:28:30;;;;;;;12.68;7.20;;;;;;;;;;5054819;28;20131;-82
2022/11/25 09:30:56;;;;;;;11.10;6.97;;;;;;;;;;5055809;28;20036;-83
2022/11/25 09:33:22;;;;;;;9.45;6.38;;;;;;;;;;5048191;28;20041;-83
2022/11/25 09:35:49;;;;;;;11.75;7.50;;;;;;;;;;5047754;28;20267;-84
2022/11/25 09:38:15;;;;;;;14.25;8.02;;;;;;;;;;5040440;28;20036;-82
2022/11/25 09:40:55;;;;;;;12.95;7.25;;;;;;;;;;5043446;28;20037;-83
2022/11/25 09:46:40;;;;;;;11.93;8.02;;;;;;;;;;5058945;28;20097;-82
2022/11/25 09:49:02;;;;;;;;;;;;;;;;;;5043160;28;20040;-83
2022/11/25 09:51:47;;;;;;;16.85;8.98;;;;;;;;;;5051073;28;20508;-81
2022/11/25 09:54:19;;;;;;;13.77;7.38;;;;;;;;;;5048851;28;20069;-85
2022/11/25 09:56:51;;;;;;;12.48;7.25;;;;;;;;;;5051030;28;20022;-83
2022/11/25 09:59:18;;;;;;;11.15;7.03;;;;;;;;;;5037964;28;20040;-82
2022/11/25 10:01:50;;;;;;;11.88;6.97;;;;;;;;;;5049445;28;20068;-82
2022/11/25 10:04:24;;;;;;;10.88;7.45;;;;;;;;;;5058529;28;20025;-83
2022/11/25 10:06:53;;;;;;;13.77;7.78;;;;;;;;;;5058629;28;20020;-83
2022/11/25 10:09:23;;;;;;;13.73;7.93;;;;;;;;;;5046684;28;20116;-83
2022/11/25 10:11:54;;;;;;;15.48;7.90;;;;;;;;;;5048524;28;20017;-84
2022/11/25 10:14:29;;;;;;;11.93;7.55;;;;;;;;;;5045394;28;20039;-82
2022/11/25 10:17:07;;;;;;;15.65;7.57;;;;;;;;;;5045772;28;20036;-83
2022/11/25 10:19:43;;;;;;;11.60;6.50;;;;;;;;;;5044255;28;20053;-84
2022/11/25 10:22:19;;;;;;;14.48;6.63;;;;;;;;;;5059235;28;20477;-84
2022/11/25 10:24:45;;;;;;;14.70;7.20;;;;;;;;;;5056829;28;21476;-85
2022/11/25 10:27:17;;;;;;;13.13;7.05;;;;;;;;;;5046513;28;20424;-84
2022/11/25 10:29:44;;;;;;;9.65;5.88;;;;;;;;;;5046246;28;20026;-80
2022/11/25 10:32:27;;;;;;;10.85;6.43;;;;;;;;;;5043690;28;20107;-84
2022/11/25 10:34:57;;;;;;;12.18;6.18;;;;;;;;;;5049775;28;20017;-83
2022/11/25 10:37:28;;;;;;;10.23;7.07;;;;;;;;;;5061746;28;20036;-84
2022/11/25 10:39:54;;;;;;;9.70;5.90;;;;;;;;;;5046414;28;20030;-83
2022/11/25 10:42:21;;;;;;;9.60;6.32;;;;;;;;;;5041730;28;20034;-84
2022/11/25 10:44:47;;;;;;;9.63;5.90;;;;;;;;;;5047987;28;20033;-83
2022/11/25 10:47:19;;;;;;;14.52;7.40;;;;;;;;;;5062422;28;20533;-84
2022/11/25 10:49:45;;;;;;;14.97;6.13;;;;;;;;;;5061473;28;20027;-84
2022/11/25 10:52:12;;;;;;;9.63;6.00;;;;;;;;;;5061593;28;20290;-83
2022/11/25 10:54:38;;;;;;;12.45;5.80;;;;;;;;;;5060019;28;20525;-83
2022/11/25 10:57:15;;;;;;;9.15;6.00;;;;;;;;;;5062796;28;20502;-83
2022/11/25 10:59:41;;;;;;;8.85;5.55;;;;;;;;;;5044510;28;20029;-83
2022/11/25 11:02:27;;;;;;;9.82;5.63;;;;;;;;;;5041841;28;20017;-84
2022/11/25 11:04:56;;;;;;;14.88;7.30;;;;;;;;;;5047660;28;20045;-83
2022/11/25 11:07:23;;;;;;;8.05;4.90;;;;;;;;;;5061810;28;20017;-85
2022/11/25 11:09:49;;;;;;;12.90;6.60;;;;;;;;;;5061720;28;20379;-83
2022/11/25 11:12:25;;;;;;;9.07;5.47;;;;;;;;;;5049224;28;20104;-83
2022/11/25 11:14:52;;;;;;;8.98;6.13;;;;;;;;;;5046567;28;20025;-83
2022/11/25 11:17:29;;;;;;;10.18;5.07;;;;;;;;;;5062305;28;20032;-83
2022/11/25 11:20:21;;;;;;;12.48;5.43;;;;;;;;;;5070909;28;20205;-84
2022/11/25 11:23:06;;;;;;;7.70;4.50;;;;;;;;;;5061733;28;20037;-84
2022/11/25 11:25:36;;;;;;;8.15;4.60;;;;;;;;;;5055013;28;20128;-84
2022/11/25 11:28:03;;;;;;;7.05;5.13;;;;;;;;;;5051958;28;20040;-84
2022/11/25 11:30:31;;;;;;;8.30;4.95;;;;;;;;;;5042783;28;20025;-83
2022/11/25 11:33:05;;;;;;;8.45;4.40;;;;;;;;;;5042513;28;20053;-83
2022/11/25 11:35:50;;;;;;;7.60;4.53;;;;;;;;;;5043497;28;20064;-85
2022/11/25 11:38:34;;;;;;;11.35;4.53;;;;;;;;;;5054613;28;20033;-83
2022/11/25 11:41:23;;;;;;;7.57;4.47;;;;;;;;;;5056107;28;20218;-83
2022/11/25 11:44:07;;;;;;;6.97;4.20;;;;;;;;;;5031770;28;20072;-84
2022/11/25 11:46:42;;;;;;;11.30;5.35;;;;;;;;;;5042772;28;20045;-85
2022/11/25 11:49:32;;;;;;;8.05;3.72;;;;;;;;;;5060177;28;20053;-83
2022/11/25 11:51:59;;;;;;;11.45;4.97;;;;;;;;;;5017844;28;20074;-84
2022/11/25 11:54:28;;;;;;;8.85;4.20;;;;;;;;;;5062623;28;20116;-83
2022/11/25 11:56:57;;;;;;;7.88;3.67;;;;;;;;;;5047371;28;20060;-84
2022/11/25 11:59:39;;;;;;;6.47;3.70;;;;;;;;;;5062637;28;20025;-83
2022/11/25 12:02:20;;;;;;;8.25;3.70;;;;;;;;;;5045986;28;20044;-83
2022/11/25 12:05:05;;;;;;;7.28;3.70;;;;;;;;;;5046577;28;20035;-83
2022/11/25 12:07:40;;;;;;;8.63;4.50;;;;;;;;;;5058836;28;20051;-82
2022/11/25 12:10:15;;;;;;;7.63;4.13;;;;;;;;;;5058950;28;20079;-84
2022/11/25 12:12:47;;;;;;;9.45;3.90;;;;;;;;;;5044976;28;20040;-83
2022/11/25 12:15:20;;;;;;;10.23;3.60;;;;;;;;;;5042762;28;20159;-81
2022/11/25 12:17:50;;;;;;;6.45;3.25;;;;;;;;;;5043685;28;20052;-83
2022/11/25 12:20:20;;;;;;;6.60;3.03;;;;;;;;;;5064925;28;20037;-83
2022/11/25 12:22:53;;;;;;;14.57;5.07;;;;;;;;;;5053682;28;20025;-84
2022/11/25 12:25:20;;;;;;;8.48;3.65;;;;;;;;;;5046667;28;20037;-83
2022/11/25 12:27:47;;;;;;;7.60;3.65;;;;;;;;;;5050861;28;20033;-83
2022/11/25 12:30:15;;;;;;;6.88;3.35;;;;;;;;;;5062288;28;21047;-83
2022/11/25 12:32:53;;;;;;;7.93;3.40;;;;;;;;;;5060666;28;20032;-83
2022/11/25 12:35:38;;;;;;;11.15;3.03;;;;;;;;;;5059665;28;20119;-83
2022/11/25 12:38:04;;;;;;;8.70;3.25;;;;;;;;;;5064192;28;20025;-84
2022/11/25 12:40:50;;;;;;;6.00;2.47;;;;;;;;;;5057635;28;20085;-82
2022/11/25 12:43:35;;;;;;;5.63;2.60;;;;;;;;;;5021184;28;20053;-83
2022/11/25 12:46:12;;;;;;;7.82;3.13;;;;;;;;;;5047178;28;20543;-83
2022/11/25 12:48:40;;;;;;;5.57;2.30;;;;;;;;;;5049394;28;20033;-83
2022/11/25 12:51:06;;;;;;;5.38;2.30;;;;;;;;;;5060209;28;20103;-83
2022/11/25 12:53:38;;;;;;;7.72;3.00;;;;;;;;;;5048105;28;20522;-83
2022/11/25 12:56:06;;;;;;;7.18;2.40;;;;;;;;;;5040232;28;20032;-83
2022/11/25 12:58:37;;;;;;;5.50;1.90;;;;;;;;;;5040315;28;20033;-82
2022/11/25 13:01:15;;;;;;;4.30;1.90;;;;;;;;;;5040608;28;20033;-83
2022/11/25 13:03:44;;;;;;;5.45;2.03;;;;;;;;;;5039440;28;20017;-83
2022/11/25 13:06:15;;;;;;;7.15;2.20;;;;;;;;;;5039793;28;20044;-83
2022/11/25 13:08:53;;;;;;;5.47;2.22;;;;;;;;;;5060236;28;20025;-82
2022/11/25 13:11:48;;;;;;;8.55;2.67;;;;;;;;;;5062311;28;20020;-83
2022/11/25 13:14:17;;;;;;;6.10;2.55;;;;;;;;;;4985574;28;20074;-83
2022/11/25 13:16:45;;;;;;;8.02;2.45;;;;;;;;;;5054339;28;20479;-84
2022/11/25 13:19:18;;;;;;;6.70;2.10;;;;;;;;;;5053669;28;20022;-82
2022/11/25 13:21:57;;;;;;;18.60;4.47;;;;;;;;;;5046405;28;20021;-83
2022/11/25 13:24:29;;;;;;;6.88;2.13;;;;;;;;;;5055406;28;20029;-83
2022/11/25 13:26:56;;;;;;;6.95;2.95;;;;;;;;;;5060936;28;20108;-82
2022/11/25 13:29:25;;;;;;;4.28;1.63;;;;;;;;;;5060584;28;20043;-83
2022/11/25 13:31:59;;;;;;;10.48;2.22;;;;;;;;;;5062283;28;20051;-82
2022/11/25 13:34:26;;;;;;;5.32;2.08;;;;;;;;;;5046989;28;20033;-83
2022/11/25 13:36:56;;;;;;;5.63;2.55;;;;;;;;;;5040847;28;20032;-83
2022/11/25 13:39:33;;;;;;;3.55;1.60;;;;;;;;;;5040240;28;20048;-83
2022/11/25 13:42:12;;;;;;;14.15;3.50;;;;;;;;;;5040025;28;20053;-83
2022/11/25 13:44:52;;;;;;;3.95;1.80;;;;;;;;;;5056010;28;20045;-85
2022/11/25 13:47:28;;;;;;;8.95;2.80;;;;;;;;;;5059775;28;20091;-84
2022/11/25 13:50:01;;;;;;;4.38;1.63;;;;;;;;;;5055013;28;20044;-85
2022/11/25 13:52:31;;;;;;;5.13;1.83;;;;;;;;;;5040209;28;20022;-82
2022/11/25 13:54:57;;;;;;;6.97;2.38;;;;;;;;;;5057535;28;20487;-83
2022/11/25 13:57:27;;;;;;;7.85;2.08;;;;;;;;;;5060298;28;20075;-84
2022/11/25 13:59:58;;;;;;;5.15;1.88;;;;;;;;;;5059402;28;20091;-83
2022/11/25 14:02:24;;;;;;;4.75;2.00;;;;;;;;;;5059820;28;20025;-83
2022/11/25 14:04:54;;;;;;;4.57;2.25;;;;;;;;;;5053074;28;20674;-85
2022/11/25 14:07:29;;;;;;;6.10;2.40;;;;;;;;;;5055262;28;20429;-84
2022/11/25 14:10:01;;;;;;;9.13;3.00;;;;;;;;;;5079525;28;20031;-83
2022/11/25 14:12:27;;;;;;;7.82;2.50;;;;;;;;;;5077950;28;20047;-83
2022/11/25 14:15:12;;;;;;;6.53;2.60;;;;;;;;;;5068108;28;20063;-83
2022/11/25 14:17:39;;;;;;;9.35;2.92;;;;;;;;;;5059147;28;20084;-84
2022/11/25 14:20:11;;;;;;;6.72;2.83;;;;;;;;;;5048580;28;20080;-83
2022/11/25 14:22:37;;;;;;;16.17;4.32;;;;;;;;;;5039285;28;20038;-83
2022/11/25 14:25:12;;;;;;;8.52;4.13;;;;;;;;;;5049694;28;20029;-84
2022/11/25 14:27:38;;;;;;;8.13;3.58;;;;;;;;;;5057915;28;20505;-84
2022/11/25 14:30:06;;;;;;;7.50;3.38;;;;;;;;;;5060681;28;20028;-84
2022/11/25 14:32:35;;;;;;;9.23;3.63;;;;;;;;;;5060265;28;20021;-84
2022/11/25 14:35:08;;;;;;;11.50;3.80;;;;;;;;;;5047430;28;20361;-84
2022/11/25 14:37:41;;;;;;;9.25;2.97;;;;;;;;;;5054121;28;20081;-83
2022/11/25 14:40:13;;;;;;;9.50;3.88;;;;;;;;;;5058003;28;20025;-83
2022/11/25 14:42:39;;;;;;;;;;;;;;;;;;5059389;28;20502;-83
2022/11/25 14:45:19;;;;;;;11.13;3.25;;;;;;;;;;5058989;28;19913;-83
2022/11/25 14:47:45;;;;;;;22.50;5.40;;;;;;;;;;5048477;28;20495;-83
2022/11/25 14:50:15;;;;;;;9.35;3.70;;;;;;;;;;5041639;28;20022;-83
2022/11/25 14:52:42;;;;;;;15.93;4.28;;;;;;;;;;5041094;28;20523;-83
2022/11/25 14:55:09;;;;;;;11.90;4.07;;;;;;;;;;5042959;28;20408;-82
2022/11/25 14:57:36;;;;;;;11.65;3.60;;;;;;;;;;5057924;28;20021;-83
2022/11/25 15:00:07;;;;;;;10.32;4.00;;;;;;;;;;5063696;28;20032;-84